createdAt,value
2023-08-29T00:00:41.017Z,100
2023-08-29T00:10:41.677Z,100
2023-08-29T00:20:42.173Z,100
2023-08-29T00:50:43.977Z,100
2023-08-29T01:00:44.110Z,100
2023-08-29T01:10:45.138Z,100
2023-08-29T01:20:45.689Z,100
2023-08-29T01:30:46.524Z,100
2023-08-29T01:40:47.509Z,100
2023-08-29T01:50:48.178Z,100
2023-08-29T02:00:48.464Z,100
2023-08-29T02:10:49.082Z,99
2023-08-29T02:20:49.388Z,99
2023-08-29T02:30:49.938Z,99
2023-08-29T02:40:50.250Z,99
2023-08-29T02:50:50.860Z,99
2023-08-29T03:00:51.928Z,99
2023-08-29T03:10:52.198Z,99
2023-08-29T03:20:52.956Z,99
2023-08-29T03:30:53.100Z,99
2023-08-29T03:50:54.173Z,98
2023-08-29T04:00:55.237Z,98
2023-08-29T04:10:56.181Z,98
2023-08-29T04:20:57.042Z,98
2023-08-29T04:40:58.864Z,98
2023-08-29T04:50:59.098Z,98
2023-08-29T05:00:59.445Z,98
2023-08-29T05:21:00.786Z,97
2023-08-29T05:31:00.979Z,97
2023-08-29T05:51:02.578Z,96
2023-08-29T06:01:03.318Z,96
2023-08-29T06:11:04.066Z,96
2023-08-29T06:21:04.694Z,96
2023-08-29T06:41:05.911Z,96
2023-08-29T06:51:06.233Z,95
2023-08-29T07:01:06.540Z,95
2023-08-29T07:21:06.994Z,95
2023-08-29T07:41:07.363Z,96
2023-08-29T07:51:07.907Z,96
2023-08-29T08:11:09.273Z,97
2023-08-29T08:21:09.777Z,97
2023-08-29T08:31:10.591Z,98
2023-08-29T08:41:11.618Z,98
2023-08-29T09:01:12.536Z,100
2023-08-29T09:11:13.324Z,100
2023-08-29T09:31:14.501Z,100
2023-08-29T09:51:15.350Z,100
2023-08-29T10:01:15.553Z,100
2023-08-29T10:11:15.957Z,100
2023-08-29T10:21:16.715Z,100
2023-08-29T10:31:17.756Z,100
2023-08-29T10:41:17.992Z,100
2023-08-29T10:51:18.974Z,100
2023-08-29T11:11:20.403Z,100
2023-08-29T11:21:20.720Z,100
2023-08-29T11:41:40.715Z,100
2023-08-29T12:01:24.071Z,100
2023-08-29T12:11:24.218Z,99
2023-08-29T12:21:24.914Z,97
2023-08-29T12:31:25.728Z,94
2023-08-29T12:41:26.376Z,95
2023-08-29T13:01:27.437Z,91
2023-08-29T13:11:27.522Z,91
2023-08-29T13:21:28.018Z,91
2023-08-29T13:31:28.923Z,88
2023-08-29T13:41:29.921Z,86
2023-08-29T13:51:30.724Z,85
2023-08-29T14:01:30.997Z,87
2023-08-29T14:11:31.677Z,87
2023-08-29T14:21:32.734Z,89
2023-08-29T14:31:33.660Z,88
2023-08-29T14:41:34.192Z,86
2023-08-29T14:51:34.783Z,86
2023-08-29T15:11:36.158Z,83
2023-08-29T15:21:36.719Z,83
2023-08-29T15:31:37.672Z,83
2023-08-29T15:41:38.325Z,84
2023-08-29T15:51:39.402Z,83
2023-08-29T16:01:40.091Z,84
2023-08-29T16:11:40.975Z,88
2023-08-29T16:21:41.143Z,88
2023-08-29T16:31:41.473Z,89
2023-08-29T16:51:42.583Z,91
2023-08-29T17:01:42.942Z,93
2023-08-29T17:11:43.815Z,95
2023-08-29T17:21:44.074Z,97
2023-08-29T23:02:05.587Z,100
2023-08-29T23:22:06.255Z,100
2023-08-29T23:32:07.211Z,100
2023-08-29T23:42:07.875Z,100
